createdAt,value
2023-11-16T00:01:06.671Z,9.38
2023-11-16T00:03:33.175Z,9.38
2023-11-16T00:05:59.763Z,9.38
2023-11-16T00:08:26.324Z,9.38
2023-11-16T00:10:55.623Z,9.37
2023-11-16T00:13:22.155Z,9.39
2023-11-16T00:15:49.493Z,9.39
2023-11-16T00:18:18.778Z,9.35
2023-11-16T00:20:45.543Z,9.32
2023-11-16T00:23:11.974Z,9.31
2023-11-16T00:25:38.963Z,9.28
2023-11-16T00:28:06.147Z,9.24
2023-11-16T00:30:32.723Z,9.20
2023-11-16T00:32:59.448Z,9.17
2023-11-16T00:35:26.251Z,9.15
2023-11-16T00:37:53.983Z,9.08
2023-11-16T00:40:21.574Z,9.06
2023-11-16T00:42:48.230Z,9.02
2023-11-16T00:45:15.118Z,9.03
2023-11-16T00:47:41.796Z,9.00
2023-11-16T00:50:09.191Z,8.98
2023-11-16T00:52:35.922Z,8.95
2023-11-16T00:55:06.134Z,8.95
2023-11-16T00:57:32.878Z,8.94
2023-11-16T00:59:59.485Z,8.94
2023-11-16T01:02:26.686Z,8.92
2023-11-16T01:04:53.370Z,8.90
2023-11-16T01:07:20.841Z,8.90
2023-11-16T01:09:47.364Z,8.89
2023-11-16T01:12:17.669Z,8.85
2023-11-16T01:14:45.878Z,8.85
2023-11-16T01:17:34.758Z,8.83
2023-11-16T01:20:05.880Z,8.84
2023-11-16T01:22:41.666Z,8.84
2023-11-16T01:25:16.387Z,8.83
2023-11-16T01:27:47.196Z,8.79
2023-11-16T01:30:14.547Z,8.75
2023-11-16T01:32:41.086Z,8.75
2023-11-16T01:35:08.018Z,8.75
2023-11-16T01:37:35.817Z,8.75
2023-11-16T01:40:02.518Z,8.75
2023-11-16T01:42:29.457Z,8.72
2023-11-16T01:44:56.181Z,8.72
2023-11-16T01:47:22.727Z,8.71
2023-11-16T01:49:49.182Z,8.71
2023-11-16T01:52:16.379Z,8.68
2023-11-16T01:54:43.286Z,8.68
2023-11-16T01:57:10.220Z,8.65
2023-11-16T01:59:39.392Z,8.65
2023-11-16T02:02:10.970Z,8.62
2023-11-16T02:04:38.494Z,8.62
2023-11-16T02:07:06.545Z,8.60
2023-11-16T02:09:33.290Z,8.59
2023-11-16T02:11:59.870Z,8.56
2023-11-16T02:14:26.412Z,8.50
2023-11-16T02:16:54.002Z,8.49
2023-11-16T02:19:31.656Z,8.48
2023-11-16T02:21:59.456Z,8.45
2023-11-16T02:24:26.046Z,8.45
2023-11-16T02:26:52.675Z,8.44
2023-11-16T02:29:19.213Z,8.43
2023-11-16T02:31:45.694Z,8.40
2023-11-16T02:34:12.226Z,8.37
2023-11-16T02:36:38.776Z,8.35
2023-11-16T02:39:07.912Z,8.33
2023-11-16T02:41:35.550Z,8.29
2023-11-16T02:44:02.075Z,8.30
2023-11-16T02:46:28.525Z,8.25
2023-11-16T02:48:55.234Z,8.26
2023-11-16T02:51:21.806Z,8.25
2023-11-16T02:53:48.276Z,8.23
2023-11-16T02:56:14.812Z,8.23
2023-11-16T02:58:45.640Z,8.23
2023-11-16T03:01:14.372Z,8.22
2023-11-16T03:03:41.775Z,8.23
2023-11-16T03:06:09.796Z,8.20
2023-11-16T03:08:36.691Z,8.20
2023-11-16T03:11:04.348Z,8.18
2023-11-16T03:13:31.094Z,8.18
2023-11-16T03:15:57.722Z,8.18
2023-11-16T03:18:24.743Z,8.17
2023-11-16T03:20:51.511Z,8.16
2023-11-16T03:23:18.011Z,8.12
2023-11-16T03:25:44.835Z,8.09
2023-11-16T03:28:11.451Z,8.07
2023-11-16T03:30:39.499Z,8.06
2023-11-16T03:33:09.819Z,8.03
2023-11-16T03:35:36.748Z,7.99
2023-11-16T03:38:04.021Z,7.96
2023-11-16T03:40:31.956Z,7.88
2023-11-16T03:42:59.044Z,7.90
2023-11-16T03:45:25.613Z,7.89
2023-11-16T03:47:52.589Z,7.90
2023-11-16T03:50:19.288Z,7.86
2023-11-16T03:52:46.577Z,7.86
2023-11-16T03:55:14.252Z,7.83
2023-11-16T03:57:41.426Z,7.79
2023-11-16T04:00:09.433Z,7.77
2023-11-16T04:02:37.029Z,7.76
2023-11-16T04:05:06.109Z,7.72
2023-11-16T04:07:37.174Z,7.68
2023-11-16T04:10:05.423Z,7.66
2023-11-16T04:12:32.389Z,7.61
2023-11-16T04:14:59.112Z,7.61
2023-11-16T04:17:27.560Z,7.61
2023-11-16T04:19:54.377Z,7.60
2023-11-16T04:22:23.273Z,7.59
2023-11-16T04:24:53.038Z,7.57
2023-11-16T04:27:20.581Z,7.53
2023-11-16T04:29:47.748Z,7.49
2023-11-16T04:32:15.388Z,7.44
2023-11-16T04:34:43.358Z,7.40
2023-11-16T04:37:11.824Z,7.33
2023-11-16T04:39:38.558Z,7.27
2023-11-16T04:42:05.581Z,7.22
2023-11-16T04:44:35.472Z,7.20
2023-11-16T04:47:04.652Z,7.17
2023-11-16T04:49:31.512Z,7.14
2023-11-16T04:51:58.839Z,7.12
2023-11-16T04:54:27.749Z,7.11
2023-11-16T04:56:54.250Z,7.08
2023-11-16T04:59:20.821Z,7.11
2023-11-16T05:01:47.402Z,7.08
2023-11-16T05:04:14.046Z,7.05
2023-11-16T05:06:41.524Z,7.04
2023-11-16T05:09:08.398Z,7.05
2023-11-16T05:11:35.226Z,6.97
2023-11-16T05:14:01.729Z,6.87
2023-11-16T05:16:28.676Z,6.76
2023-11-16T05:18:55.648Z,6.66
2023-11-16T05:21:22.754Z,6.53
2023-11-16T05:23:50.350Z,6.57
2023-11-16T05:26:17.942Z,6.59
2023-11-16T05:28:44.870Z,6.58
2023-11-16T05:31:12.720Z,6.58
2023-11-16T05:33:39.493Z,6.58
2023-11-16T05:36:07.358Z,6.58
2023-11-16T05:38:34.264Z,6.57
2023-11-16T05:41:00.950Z,6.55
2023-11-16T05:43:27.653Z,6.53
2023-11-16T05:45:54.284Z,6.52
2023-11-16T05:48:21.043Z,6.52
2023-11-16T05:50:48.052Z,6.47
2023-11-16T05:53:14.858Z,6.48
2023-11-16T05:55:41.517Z,6.46
2023-11-16T05:58:08.220Z,6.43
2023-11-16T06:00:38.746Z,6.40
2023-11-16T06:03:06.797Z,6.38
2023-11-16T06:05:34.895Z,6.36
2023-11-16T06:08:01.688Z,6.36
2023-11-16T06:10:28.636Z,6.37
2023-11-16T06:12:56.786Z,6.36
2023-11-16T06:15:26.165Z,6.35
2023-11-16T06:17:56.101Z,6.36
2023-11-16T06:20:23.007Z,6.31
2023-11-16T06:22:52.131Z,6.33
2023-11-16T06:25:19.150Z,6.30
2023-11-16T06:27:46.864Z,6.34
2023-11-16T06:30:14.862Z,6.40
2023-11-16T06:32:43.207Z,6.47
2023-11-16T06:35:11.216Z,6.54
2023-11-16T06:37:38.782Z,6.59
2023-11-16T06:40:08.561Z,6.61
2023-11-16T06:42:37.837Z,6.60
2023-11-16T06:45:09.055Z,6.59
2023-11-16T06:47:36.672Z,6.64
2023-11-16T06:50:07.218Z,6.66
2023-11-16T06:52:37.374Z,6.70
2023-11-16T06:55:05.752Z,6.76
2023-11-16T06:57:32.286Z,6.80
2023-11-16T06:59:59.075Z,6.83
2023-11-16T07:02:25.680Z,6.84
2023-11-16T07:04:52.313Z,6.86
2023-11-16T07:07:19.401Z,6.84
2023-11-16T07:09:47.392Z,6.80
2023-11-16T07:12:16.244Z,6.83
2023-11-16T07:14:48.148Z,6.89
2023-11-16T07:17:20.161Z,6.93
2023-11-16T07:19:48.681Z,6.97
2023-11-16T07:22:15.434Z,6.97
2023-11-16T07:24:45.832Z,7.00
2023-11-16T07:27:13.875Z,7.04
2023-11-16T07:29:45.105Z,7.08
2023-11-16T07:32:13.026Z,7.10
2023-11-16T07:34:40.984Z,7.14
2023-11-16T07:37:08.236Z,7.19
2023-11-16T07:39:35.401Z,7.23
2023-11-16T07:42:02.218Z,7.26
2023-11-16T07:44:28.886Z,7.29
2023-11-16T07:46:55.513Z,7.30
2023-11-16T07:49:22.633Z,7.30
2023-11-16T07:51:49.395Z,7.33
2023-11-16T07:54:16.877Z,7.34
2023-11-16T07:56:51.157Z,7.38
2023-11-16T07:59:19.878Z,7.43
2023-11-16T08:01:56.893Z,7.42
2023-11-16T08:04:27.052Z,7.44
2023-11-16T08:06:55.223Z,7.49
2023-11-16T08:09:27.926Z,7.53
2023-11-16T08:11:57.612Z,7.57
2023-11-16T08:14:27.165Z,7.62
2023-11-16T08:16:58.247Z,7.66
2023-11-16T08:19:32.667Z,7.67
2023-11-16T08:22:00.660Z,7.64
2023-11-16T08:24:27.914Z,7.61
2023-11-16T08:26:58.116Z,7.57
2023-11-16T08:29:25.129Z,7.59
2023-11-16T08:31:55.358Z,7.61
2023-11-16T08:34:22.026Z,7.62
2023-11-16T08:36:48.652Z,7.63
2023-11-16T08:39:15.911Z,7.65
2023-11-16T08:41:44.442Z,7.64
2023-11-16T08:44:11.684Z,7.62
2023-11-16T08:46:42.963Z,7.61
2023-11-16T08:49:12.655Z,7.62
2023-11-16T08:51:40.367Z,7.60
2023-11-16T08:54:10.273Z,7.58
2023-11-16T08:56:41.620Z,7.60
2023-11-16T08:59:09.956Z,7.63
2023-11-16T09:01:39.676Z,7.64
2023-11-16T09:04:07.711Z,7.64
2023-11-16T09:06:35.255Z,7.68
2023-11-16T09:09:19.454Z,7.67
2023-11-16T09:11:47.946Z,7.68
2023-11-16T09:14:14.409Z,7.69
2023-11-16T09:16:43.440Z,7.71
2023-11-16T09:19:12.793Z,7.74
2023-11-16T09:21:41.724Z,7.78
2023-11-16T09:24:09.038Z,7.77
2023-11-16T09:26:35.490Z,7.76
2023-11-16T09:29:07.992Z,7.77
2023-11-16T09:31:35.183Z,7.77
2023-11-16T09:34:02.335Z,7.77
2023-11-16T09:36:29.404Z,7.80
2023-11-16T09:38:58.746Z,7.80
2023-11-16T09:41:28.261Z,7.77
2023-11-16T09:44:06.574Z,7.75
2023-11-16T09:46:33.637Z,7.75
2023-11-16T09:49:06.824Z,7.78
2023-11-16T09:51:36.241Z,7.79
2023-11-16T09:54:04.242Z,7.80
2023-11-16T09:56:39.021Z,7.84
2023-11-16T09:59:15.352Z,7.84
2023-11-16T10:01:54.407Z,7.85
2023-11-16T10:04:21.290Z,7.87
2023-11-16T10:06:50.985Z,7.89
2023-11-16T10:09:17.709Z,7.92
2023-11-16T10:11:44.309Z,7.91
2023-11-16T10:14:10.773Z,7.91
2023-11-16T10:16:38.284Z,7.90
2023-11-16T10:19:07.860Z,7.95
2023-11-16T10:21:40.916Z,7.98
2023-11-16T10:24:10.645Z,8.00
2023-11-16T10:26:37.437Z,8.02
2023-11-16T10:29:03.982Z,8.03
2023-11-16T10:31:33.101Z,8.09
2023-11-16T10:33:59.890Z,8.08
2023-11-16T10:36:27.738Z,8.03
2023-11-16T10:38:59.129Z,8.07
2023-11-16T10:41:25.881Z,8.04
2023-11-16T10:43:57.458Z,8.04
2023-11-16T10:46:28.897Z,8.03
2023-11-16T10:48:55.468Z,8.01
2023-11-16T10:51:25.264Z,8.04
2023-11-16T10:53:54.038Z,8.05
2023-11-16T10:56:20.757Z,8.06
2023-11-16T10:58:50.719Z,8.09
2023-11-16T11:01:20.699Z,8.08
2023-11-16T11:03:49.367Z,8.06
2023-11-16T11:06:19.648Z,8.08
2023-11-16T11:08:46.815Z,8.12
2023-11-16T11:11:14.086Z,8.09
2023-11-16T11:13:42.655Z,8.03
2023-11-16T11:16:11.826Z,8.05
2023-11-16T11:18:53.293Z,8.05
2023-11-16T11:21:21.655Z,8.04
2023-11-16T11:24:17.900Z,7.93
2023-11-16T11:26:49.596Z,7.91
2023-11-16T11:29:24.530Z,7.95
2023-11-16T11:32:04.036Z,7.99
2023-11-16T11:34:32.646Z,7.97
2023-11-16T11:37:01.798Z,7.98
2023-11-16T11:39:39.662Z,7.94
2023-11-16T11:42:06.363Z,7.96
2023-11-16T11:44:33.061Z,7.93
2023-11-16T11:46:59.917Z,7.91
2023-11-16T11:49:27.061Z,7.91
2023-11-16T11:51:54.580Z,7.96
2023-11-16T11:54:21.455Z,8.00
2023-11-16T11:56:48.187Z,8.02
2023-11-16T11:59:15.068Z,8.03
2023-11-16T12:01:41.804Z,8.03
2023-11-16T12:04:16.632Z,8.02
2023-11-16T12:06:48.289Z,8.02
2023-11-16T12:09:14.738Z,8.06
2023-11-16T12:11:42.900Z,8.08
2023-11-16T12:14:12.037Z,8.08
2023-11-16T12:16:38.911Z,8.07
2023-11-16T12:19:09.928Z,8.01
2023-11-16T12:21:40.472Z,7.98
2023-11-16T12:24:09.809Z,7.97
2023-11-16T12:26:36.865Z,7.93
2023-11-16T12:29:16.426Z,7.98
2023-11-16T12:31:45.005Z,7.99
2023-11-16T12:34:11.658Z,7.93
2023-11-16T12:36:45.537Z,7.87
2023-11-16T12:39:12.423Z,7.83
2023-11-16T12:41:39.050Z,7.89
2023-11-16T12:44:05.822Z,7.94
2023-11-16T12:46:32.413Z,7.93
2023-11-16T12:48:59.320Z,7.90
2023-11-16T12:51:26.895Z,7.90
2023-11-16T12:53:53.397Z,7.89
2023-11-16T12:56:21.053Z,7.81
2023-11-16T12:58:47.552Z,7.79
2023-11-16T13:01:14.740Z,7.78
2023-11-16T13:03:49.605Z,7.83
2023-11-16T13:06:18.770Z,7.87
2023-11-16T13:08:45.554Z,7.86
2023-11-16T13:11:14.464Z,7.84
2023-11-16T13:13:41.237Z,7.78
2023-11-16T13:16:09.598Z,7.78
2023-11-16T13:18:36.546Z,7.80
2023-11-16T13:21:10.568Z,7.87
2023-11-16T13:23:41.017Z,7.87
2023-11-16T13:26:07.715Z,7.88
2023-11-16T13:28:34.457Z,7.86
2023-11-16T13:31:02.390Z,7.86
2023-11-16T13:33:29.656Z,7.87
2023-11-16T13:35:56.466Z,7.85
2023-11-16T13:38:23.710Z,7.82
2023-11-16T13:40:50.847Z,7.82
2023-11-16T13:43:18.914Z,7.82
2023-11-16T13:45:46.379Z,7.89
2023-11-16T13:48:14.008Z,7.93
2023-11-16T13:50:43.305Z,7.93
2023-11-16T13:53:11.437Z,7.91
2023-11-16T13:55:38.003Z,7.87
2023-11-16T13:58:05.129Z,7.81
2023-11-16T14:00:33.255Z,7.79
2023-11-16T14:02:59.964Z,7.72
2023-11-16T14:05:26.788Z,7.75
2023-11-16T14:07:55.060Z,7.77
2023-11-16T14:10:24.837Z,7.75
2023-11-16T14:12:56.052Z,7.70
2023-11-16T14:15:23.890Z,7.67
2023-11-16T14:17:51.027Z,7.64
2023-11-16T14:20:18.566Z,7.62
2023-11-16T14:22:45.818Z,7.59
2023-11-16T14:25:12.527Z,7.58
2023-11-16T14:27:39.386Z,7.53
2023-11-16T14:30:08.197Z,7.47
2023-11-16T14:32:35.666Z,7.43
2023-11-16T14:35:14.581Z,7.46
2023-11-16T14:37:47.118Z,7.43
2023-11-16T14:40:13.861Z,7.42
2023-11-16T14:42:40.651Z,7.42
2023-11-16T14:45:09.613Z,7.42
2023-11-16T14:47:39.817Z,7.39
2023-11-16T14:50:10.042Z,7.36
2023-11-16T14:52:37.329Z,7.36
2023-11-16T14:55:08.262Z,7.35
2023-11-16T14:57:37.965Z,7.31
2023-11-16T15:00:06.724Z,7.28
2023-11-16T15:02:33.483Z,7.27
2023-11-16T15:05:07.526Z,7.31
2023-11-16T15:07:37.573Z,7.36
2023-11-16T15:10:06.230Z,7.36
2023-11-16T15:12:33.084Z,7.34
2023-11-16T15:15:00.398Z,7.29
2023-11-16T15:17:27.444Z,7.23
2023-11-16T15:19:54.249Z,7.18
2023-11-16T15:22:21.857Z,7.21
2023-11-16T15:24:48.700Z,7.23
2023-11-16T15:27:15.216Z,7.23
2023-11-16T15:29:41.676Z,7.18
2023-11-16T15:32:21.350Z,7.11
2023-11-16T15:34:48.220Z,7.06
2023-11-16T15:37:15.364Z,7.05
2023-11-16T15:39:41.870Z,7.04
2023-11-16T15:42:08.383Z,7.02
2023-11-16T15:44:35.141Z,7.04
2023-11-16T15:47:01.799Z,7.07
2023-11-16T15:49:28.674Z,7.06
2023-11-16T15:51:55.296Z,7.07
2023-11-16T15:54:21.767Z,7.05
2023-11-16T15:56:52.470Z,7.02
2023-11-16T15:59:19.162Z,7.01
2023-11-16T16:01:46.228Z,7.00
2023-11-16T16:04:13.274Z,6.97
2023-11-16T16:06:40.561Z,6.91
2023-11-16T16:09:09.273Z,6.87
2023-11-16T16:11:36.274Z,6.84
2023-11-16T16:14:02.907Z,6.83
2023-11-16T16:16:31.184Z,6.83
2023-11-16T16:18:58.724Z,6.84
2023-11-16T16:21:25.162Z,6.81
2023-11-16T16:23:51.612Z,6.81
2023-11-16T16:26:18.057Z,6.80
2023-11-16T16:28:46.177Z,6.82
2023-11-16T16:31:26.942Z,6.85
2023-11-16T16:33:54.443Z,6.87
2023-11-16T16:36:20.916Z,6.84
2023-11-16T16:38:47.362Z,6.81
2023-11-16T16:41:13.951Z,6.77
2023-11-16T16:43:41.022Z,6.83
2023-11-16T16:46:24.277Z,6.81
2023-11-16T16:48:50.829Z,6.82
2023-11-16T16:51:17.391Z,6.83
2023-11-16T16:53:44.480Z,6.84
2023-11-16T16:56:14.795Z,6.84
2023-11-16T16:58:41.619Z,6.80
2023-11-16T17:01:08.449Z,6.77
2023-11-16T17:03:35.266Z,6.75
2023-11-16T17:06:02.175Z,6.71
2023-11-16T17:08:28.590Z,6.67
2023-11-16T17:10:55.083Z,6.65
2023-11-16T17:13:22.038Z,6.65
2023-11-16T17:15:48.464Z,6.61
2023-11-16T17:18:15.152Z,6.61
2023-11-16T17:20:41.848Z,6.61
2023-11-16T17:23:10.294Z,6.62
2023-11-16T17:25:38.688Z,6.66
2023-11-16T17:28:07.105Z,6.67
2023-11-16T17:30:34.072Z,6.64
2023-11-16T17:33:00.782Z,6.62
2023-11-16T17:35:27.346Z,6.55
2023-11-16T17:37:54.202Z,6.56
2023-11-16T17:40:26.971Z,6.60
2023-11-16T17:42:54.414Z,6.60
2023-11-16T17:45:25.369Z,6.59
2023-11-16T17:47:52.270Z,6.59
2023-11-16T17:50:18.944Z,6.57
2023-11-16T17:52:45.513Z,6.58
2023-11-16T17:55:15.812Z,6.55
2023-11-16T17:57:43.446Z,6.54
2023-11-16T18:00:12.175Z,6.56
2023-11-16T18:02:42.484Z,6.57
2023-11-16T18:05:15.282Z,6.58
2023-11-16T18:07:48.135Z,6.56
2023-11-16T18:10:17.949Z,6.58
2023-11-16T18:12:46.722Z,6.58
2023-11-16T18:15:17.313Z,6.60
2023-11-16T18:17:44.582Z,6.59
2023-11-16T18:20:13.864Z,6.62
2023-11-16T18:22:42.043Z,6.62
2023-11-16T18:25:15.956Z,6.61
2023-11-16T18:27:44.132Z,6.60
2023-11-16T18:30:14.376Z,6.59
2023-11-16T18:32:47.823Z,6.56
2023-11-16T18:35:14.879Z,6.54
2023-11-16T18:37:41.812Z,6.53
2023-11-16T18:40:10.122Z,6.51
2023-11-16T18:42:39.653Z,6.50
2023-11-16T18:45:06.839Z,6.52
2023-11-16T18:47:33.510Z,6.51
2023-11-16T18:50:01.137Z,6.51
2023-11-16T18:52:27.817Z,6.52
2023-11-16T18:54:54.451Z,6.52
2023-11-16T18:57:21.032Z,6.53
2023-11-16T18:59:47.999Z,6.52
2023-11-16T19:02:16.103Z,6.49
2023-11-16T19:04:43.377Z,6.46
2023-11-16T19:07:10.115Z,6.45
2023-11-16T19:09:36.757Z,6.44
2023-11-16T19:12:03.660Z,6.44
2023-11-16T19:14:32.555Z,6.45
2023-11-16T19:16:59.332Z,6.43
2023-11-16T19:19:28.609Z,6.42
2023-11-16T19:21:55.964Z,6.38
2023-11-16T19:24:22.671Z,6.40
2023-11-16T19:26:49.107Z,6.41
2023-11-16T19:29:17.358Z,6.42
2023-11-16T19:31:46.233Z,6.41
2023-11-16T19:34:13.457Z,6.40
2023-11-16T19:36:40.108Z,6.39
2023-11-16T19:39:10.264Z,6.38
2023-11-16T19:41:39.722Z,6.37
2023-11-16T19:44:07.004Z,6.34
2023-11-16T19:46:34.124Z,6.32
2023-11-16T19:49:02.738Z,6.31
2023-11-16T19:51:29.833Z,6.32
2023-11-16T19:53:56.896Z,6.32
2023-11-16T19:56:24.367Z,6.30
2023-11-16T19:58:51.909Z,6.27
2023-11-16T20:01:18.539Z,6.28
2023-11-16T20:03:48.382Z,6.26
2023-11-16T20:06:16.201Z,6.24
2023-11-16T20:08:42.715Z,6.22
2023-11-16T20:11:12.257Z,6.20
2023-11-16T20:13:40.152Z,6.20
2023-11-16T20:16:10.536Z,6.17
2023-11-16T20:18:37.811Z,6.18
2023-11-16T20:21:07.333Z,6.18
2023-11-16T20:23:35.749Z,6.17
2023-11-16T20:26:04.982Z,6.15
2023-11-16T20:28:32.315Z,6.13
2023-11-16T20:30:58.866Z,6.10
2023-11-16T20:33:25.446Z,6.10
2023-11-16T20:35:52.602Z,6.07
2023-11-16T20:38:19.354Z,6.03
2023-11-16T20:40:46.446Z,6.00
2023-11-16T20:43:13.214Z,6.00
2023-11-16T20:45:39.674Z,6.01
2023-11-16T20:48:06.398Z,6.00
2023-11-16T20:50:33.171Z,6.00
2023-11-16T20:53:00.300Z,5.98
2023-11-16T20:55:26.774Z,5.97
2023-11-16T20:57:53.608Z,5.95
2023-11-16T21:00:21.093Z,5.92
2023-11-16T21:02:49.455Z,5.93
2023-11-16T21:05:16.737Z,5.91
2023-11-16T21:07:44.895Z,5.89
2023-11-16T21:10:13.000Z,5.87
2023-11-16T21:12:40.351Z,5.85
2023-11-16T21:15:09.062Z,5.84
2023-11-16T21:17:35.561Z,5.82
2023-11-16T21:20:02.427Z,5.80
2023-11-16T21:22:28.954Z,5.79
2023-11-16T21:24:55.422Z,5.78
2023-11-16T21:27:21.837Z,5.78
2023-11-16T21:29:48.825Z,5.77
2023-11-16T21:32:15.335Z,5.77
2023-11-16T21:34:45.287Z,5.71
2023-11-16T21:37:11.771Z,5.67
2023-11-16T21:39:38.519Z,5.67
2023-11-16T21:42:06.081Z,5.67
2023-11-16T21:44:32.996Z,5.64
2023-11-16T21:47:00.944Z,5.61
2023-11-16T21:49:30.551Z,5.58
2023-11-16T21:51:58.826Z,5.55
2023-11-16T21:54:25.926Z,5.55
2023-11-16T21:56:53.497Z,5.53
2023-11-16T21:59:19.935Z,5.52
2023-11-16T22:01:48.195Z,5.52
2023-11-16T22:04:14.845Z,5.49
2023-11-16T22:06:42.144Z,5.47
2023-11-16T22:09:11.848Z,5.45
2023-11-16T22:11:38.345Z,5.42
2023-11-16T22:14:05.214Z,5.43
2023-11-16T22:16:31.804Z,5.41
2023-11-16T22:18:58.218Z,5.36
2023-11-16T22:21:26.711Z,5.38
2023-11-16T22:23:54.836Z,5.37
2023-11-16T22:26:22.056Z,5.35
2023-11-16T22:28:50.641Z,5.31
2023-11-16T22:31:17.086Z,5.30
2023-11-16T22:33:44.803Z,5.28
2023-11-16T22:36:11.791Z,5.28
2023-11-16T22:38:38.674Z,5.26
2023-11-16T22:41:05.669Z,5.25
2023-11-16T22:43:32.216Z,5.24
2023-11-16T22:45:59.162Z,5.22
2023-11-16T22:48:27.023Z,5.20
2023-11-16T22:50:55.075Z,5.17
2023-11-16T22:53:21.710Z,5.14
2023-11-16T22:55:48.422Z,5.15
2023-11-16T22:58:15.215Z,5.13
2023-11-16T23:00:47.442Z,5.12
2023-11-16T23:03:14.918Z,5.12
2023-11-16T23:05:42.207Z,5.08
2023-11-16T23:08:11.173Z,5.08
2023-11-16T23:10:41.429Z,5.05
2023-11-16T23:13:13.354Z,5.01
2023-11-16T23:15:40.918Z,4.98
2023-11-16T23:18:09.161Z,4.96
2023-11-16T23:20:39.076Z,4.90
2023-11-16T23:23:06.230Z,4.90
2023-11-16T23:25:33.773Z,4.87
2023-11-16T23:28:00.575Z,4.87
2023-11-16T23:30:28.019Z,4.87
2023-11-16T23:32:55.489Z,4.83
2023-11-16T23:35:24.642Z,4.75
2023-11-16T23:37:51.937Z,4.66
2023-11-16T23:40:19.435Z,4.64
2023-11-16T23:42:47.070Z,4.65
2023-11-16T23:45:14.598Z,4.70
2023-11-16T23:47:42.789Z,4.75
2023-11-16T23:50:10.477Z,4.77
2023-11-16T23:52:37.380Z,4.78
2023-11-16T23:55:04.351Z,4.75
2023-11-16T23:57:30.805Z,4.74
2023-11-16T23:59:57.243Z,4.69
